Airfield :







YOU CAN JOIN US ON...

 
LOGIN :

Register | Disclaimer

   EN    FR    IT 

 









Legend :    VFR   Marginal VFR   IFR   Intensive IFR   Very Intensive IFR
Visi :
Ceiling :
>= 8 km
>= 3000ft
5 to 8 km
1000 to 3000 ft
1500m to 5 km
500 to 1000 ft
800 to 1500m
200 to 500 ft
< 800m
< 200 ft
Symbols :   Thunderstorms  Fog  Heavy snow  Heavy precipitations  Wind > 20 kt






- Airport Elevation : 203 ft
- IATA code : YQY


CYQY - Sydney

CURRENT METAR :
  • 092000Z 29004KT 15SM FEW020 FEW250 02/M01 A3021 RMK SC1CI1 SLP236

EXPIRED METARs :
  • 091900Z 31011G17KT 15SM FEW020 SCT250 03/M01 A3019 RMK SC1CI2 SLP227
  • 091800Z 32011G17KT 15SM FEW020 04/M00 A3016 RMK SC2 SLP219
  • 091700Z 33013G18KT 15SM SCT020 04/M00 A3017 RMK SC3 SLP220
  • 091600Z 33012KT 300V010 15SM BKN018 03/M01 A3017 RMK SC7 SLP221

TAF TAF CYQY
Valid from the 09 at 18:00 until the 10 at 06:00 UTC


091740Z 0918/1006 33012KT P6SM BKN020
TEMPO 0918/0920 SCT020
FM092000 30010KT P6SM SCT020
TEMPO 0920/1006 BKN020
BECMG 1000/1002 25006KT RMK NXT FCST BY 100000Z
CZQM FIR / North America



MET'MAP, your aeronautical weather chart ! - Copyright ORBIFLY December 2007 - Disclaimer

ORBIFLY MET'MAP TEAM :

Programming & Development : Alexandra Zaïnal
Original concept : Baudouin d'Aumeries
Technical & hardware support : Manuel Goepfert
Assistance : Marc-Olivier Méhu




SOURCES & CREDITS :

   NOAA